sensor_id;sensor_type;location;lat;lon;timestamp;temperature;humidity
61912;DHT22;49973;52.084;5.412;2023-11-22T00:01:10;4.80;99.90
61912;DHT22;49973;52.084;5.412;2023-11-22T00:03:39;4.90;99.90
61912;DHT22;49973;52.084;5.412;2023-11-22T00:06:08;4.90;99.90
61912;DHT22;49973;52.084;5.412;2023-11-22T00:08:37;4.90;99.90
61912;DHT22;49973;52.084;5.412;2023-11-22T00:11:07;4.90;99.90
61912;DHT22;49973;52.084;5.412;2023-11-22T00:13:36;4.90;99.90
61912;DHT22;49973;52.084;5.412;2023-11-22T00:16:05;4.90;99.90
61912;DHT22;49973;52.084;5.412;2023-11-22T00:18:36;4.90;99.90
61912;DHT22;49973;52.084;5.412;2023-11-22T00:21:06;4.90;99.90
61912;DHT22;49973;52.084;5.412;2023-11-22T00:23:34;4.90;99.90
61912;DHT22;49973;52.084;5.412;2023-11-22T00:26:03;4.80;99.90
61912;DHT22;49973;52.084;5.412;2023-11-22T00:28:35;4.80;99.90
61912;DHT22;49973;52.084;5.412;2023-11-22T00:31:03;4.80;99.90
61912;DHT22;49973;52.084;5.412;2023-11-22T00:33:32;5.00;99.90
61912;DHT22;49973;52.084;5.412;2023-11-22T00:36:02;4.80;99.90
61912;DHT22;49973;52.084;5.412;2023-11-22T00:38:32;4.80;99.90
61912;DHT22;49973;52.084;5.412;2023-11-22T00:41:03;4.80;99.90
61912;DHT22;49973;52.084;5.412;2023-11-22T00:43:32;4.80;99.90
61912;DHT22;49973;52.084;5.412;2023-11-22T00:46:03;4.80;99.90
61912;DHT22;49973;52.084;5.412;2023-11-22T00:48:32;4.80;99.90
61912;DHT22;49973;52.084;5.412;2023-11-22T00:51:00;4.80;99.90
61912;DHT22;49973;52.084;5.412;2023-11-22T00:53:35;4.80;99.90
61912;DHT22;49973;52.084;5.412;2023-11-22T00:56:05;4.80;99.90
61912;DHT22;49973;52.084;5.412;2023-11-22T00:58:35;4.80;99.90
61912;DHT22;49973;52.084;5.412;2023-11-22T01:01:05;4.70;99.90
61912;DHT22;49973;52.084;5.412;2023-11-22T01:03:34;4.70;99.90
61912;DHT22;49973;52.084;5.412;2023-11-22T01:06:03;4.80;99.90
61912;DHT22;49973;52.084;5.412;2023-11-22T01:08:33;4.70;99.90
61912;DHT22;49973;52.084;5.412;2023-11-22T01:11:04;4.70;99.90
61912;DHT22;49973;52.084;5.412;2023-11-22T01:13:35;4.60;99.90
61912;DHT22;49973;52.084;5.412;2023-11-22T01:16:11;4.50;99.90
61912;DHT22;49973;52.084;5.412;2023-11-22T01:18:40;4.50;99.90
61912;DHT22;49973;52.084;5.412;2023-11-22T01:21:12;4.50;99.90
61912;DHT22;49973;52.084;5.412;2023-11-22T01:23:41;4.40;99.90
61912;DHT22;49973;52.084;5.412;2023-11-22T01:26:13;4.40;99.90
61912;DHT22;49973;52.084;5.412;2023-11-22T01:28:42;4.30;99.90
61912;DHT22;49973;52.084;5.412;2023-11-22T01:31:13;4.30;99.90
61912;DHT22;49973;52.084;5.412;2023-11-22T01:33:42;4.20;99.90
61912;DHT22;49973;52.084;5.412;2023-11-22T01:36:11;4.30;99.90
61912;DHT22;49973;52.084;5.412;2023-11-22T01:38:40;4.10;99.90
61912;DHT22;49973;52.084;5.412;2023-11-22T01:41:11;4.00;99.90
61912;DHT22;49973;52.084;5.412;2023-11-22T01:43:41;4.00;99.90
61912;DHT22;49973;52.084;5.412;2023-11-22T01:46:13;3.90;99.90
61912;DHT22;49973;52.084;5.412;2023-11-22T01:48:50;4.00;99.90
61912;DHT22;49973;52.084;5.412;2023-11-22T01:51:20;3.80;99.90
61912;DHT22;49973;52.084;5.412;2023-11-22T01:53:52;3.90;99.90
61912;DHT22;49973;52.084;5.412;2023-11-22T01:56:22;3.70;99.90
61912;DHT22;49973;52.084;5.412;2023-11-22T01:58:51;3.70;99.90
61912;DHT22;49973;52.084;5.412;2023-11-22T02:01:22;3.60;99.90
61912;DHT22;49973;52.084;5.412;2023-11-22T02:03:52;3.60;99.90
61912;DHT22;49973;52.084;5.412;2023-11-22T02:06:22;3.60;99.90
61912;DHT22;49973;52.084;5.412;2023-11-22T02:08:51;3.60;99.90
61912;DHT22;49973;52.084;5.412;2023-11-22T02:11:20;3.60;99.90
61912;DHT22;49973;52.084;5.412;2023-11-22T02:13:50;3.60;99.90
61912;DHT22;49973;52.084;5.412;2023-11-22T02:16:19;3.60;99.90
61912;DHT22;49973;52.084;5.412;2023-11-22T02:18:48;3.60;99.90
61912;DHT22;49973;52.084;5.412;2023-11-22T02:21:19;3.60;99.90
61912;DHT22;49973;52.084;5.412;2023-11-22T02:23:50;3.60;99.90
61912;DHT22;49973;52.084;5.412;2023-11-22T02:26:19;3.60;99.90
61912;DHT22;49973;52.084;5.412;2023-11-22T02:28:47;3.60;99.90
61912;DHT22;49973;52.084;5.412;2023-11-22T02:31:16;3.50;99.90
61912;DHT22;49973;52.084;5.412;2023-11-22T02:33:45;3.50;99.90
61912;DHT22;49973;52.084;5.412;2023-11-22T02:36:14;3.50;99.90
61912;DHT22;49973;52.084;5.412;2023-11-22T02:38:42;3.50;99.90
61912;DHT22;49973;52.084;5.412;2023-11-22T02:41:14;3.40;99.90
61912;DHT22;49973;52.084;5.412;2023-11-22T02:43:43;3.40;99.90
61912;DHT22;49973;52.084;5.412;2023-11-22T02:46:13;3.40;99.90
61912;DHT22;49973;52.084;5.412;2023-11-22T02:48:42;3.30;99.90
61912;DHT22;49973;52.084;5.412;2023-11-22T02:51:12;3.30;99.90
61912;DHT22;49973;52.084;5.412;2023-11-22T02:53:41;3.20;99.90
61912;DHT22;49973;52.084;5.412;2023-11-22T02:56:14;3.20;99.90
61912;DHT22;49973;52.084;5.412;2023-11-22T02:58:44;3.20;99.90
61912;DHT22;49973;52.084;5.412;2023-11-22T03:01:13;3.10;99.90
61912;DHT22;49973;52.084;5.412;2023-11-22T03:03:42;3.10;99.90
61912;DHT22;49973;52.084;5.412;2023-11-22T03:06:11;3.00;99.90
61912;DHT22;49973;52.084;5.412;2023-11-22T03:08:39;3.20;99.90
61912;DHT22;49973;52.084;5.412;2023-11-22T03:11:08;3.00;99.90
61912;DHT22;49973;52.084;5.412;2023-11-22T03:13:38;3.10;99.90
61912;DHT22;49973;52.084;5.412;2023-11-22T03:16:07;2.90;99.90
61912;DHT22;49973;52.084;5.412;2023-11-22T03:18:38;3.00;99.90
61912;DHT22;49973;52.084;5.412;2023-11-22T03:21:06;2.90;99.90
61912;DHT22;49973;52.084;5.412;2023-11-22T03:23:37;2.90;99.90
61912;DHT22;49973;52.084;5.412;2023-11-22T03:26:07;3.00;99.90
61912;DHT22;49973;52.084;5.412;2023-11-22T03:28:38;2.80;99.90
61912;DHT22;49973;52.084;5.412;2023-11-22T03:31:07;2.80;99.90
61912;DHT22;49973;52.084;5.412;2023-11-22T03:33:36;2.80;99.90
61912;DHT22;49973;52.084;5.412;2023-11-22T03:36:05;2.70;99.90
61912;DHT22;49973;52.084;5.412;2023-11-22T03:38:34;2.70;99.90
61912;DHT22;49973;52.084;5.412;2023-11-22T03:41:03;2.70;99.90
61912;DHT22;49973;52.084;5.412;2023-11-22T03:43:33;2.70;99.90
61912;DHT22;49973;52.084;5.412;2023-11-22T03:46:03;2.70;99.90
61912;DHT22;49973;52.084;5.412;2023-11-22T03:48:32;2.70;99.90
61912;DHT22;49973;52.084;5.412;2023-11-22T03:51:01;2.60;99.90
61912;DHT22;49973;52.084;5.412;2023-11-22T03:53:29;2.60;99.90
61912;DHT22;49973;52.084;5.412;2023-11-22T03:55:59;2.60;99.90
61912;DHT22;49973;52.084;5.412;2023-11-22T03:58:28;2.60;99.90
61912;DHT22;49973;52.084;5.412;2023-11-22T04:00:57;2.60;99.90
61912;DHT22;49973;52.084;5.412;2023-11-22T04:03:31;2.60;99.90
61912;DHT22;49973;52.084;5.412;2023-11-22T04:06:00;2.50;99.90
61912;DHT22;49973;52.084;5.412;2023-11-22T04:08:29;2.60;99.90
61912;DHT22;49973;52.084;5.412;2023-11-22T04:10:59;2.60;99.90
61912;DHT22;49973;52.084;5.412;2023-11-22T04:13:27;2.60;99.90
61912;DHT22;49973;52.084;5.412;2023-11-22T04:15:57;2.60;99.90
61912;DHT22;49973;52.084;5.412;2023-11-22T04:18:26;2.60;99.90
61912;DHT22;49973;52.084;5.412;2023-11-22T04:20:57;2.60;99.90
61912;DHT22;49973;52.084;5.412;2023-11-22T04:23:28;2.60;99.90
61912;DHT22;49973;52.084;5.412;2023-11-22T04:25:57;2.60;99.90
61912;DHT22;49973;52.084;5.412;2023-11-22T04:28:27;2.60;99.90
61912;DHT22;49973;52.084;5.412;2023-11-22T04:30:57;2.60;99.90
61912;DHT22;49973;52.084;5.412;2023-11-22T04:33:25;2.60;99.90
61912;DHT22;49973;52.084;5.412;2023-11-22T04:35:57;2.60;99.90
61912;DHT22;49973;52.084;5.412;2023-11-22T04:38:25;2.60;99.90
61912;DHT22;49973;52.084;5.412;2023-11-22T04:40:55;2.80;99.90
61912;DHT22;49973;52.084;5.412;2023-11-22T04:43:23;2.60;99.90
61912;DHT22;49973;52.084;5.412;2023-11-22T04:45:52;2.60;99.90
61912;DHT22;49973;52.084;5.412;2023-11-22T04:48:22;2.60;99.90
61912;DHT22;49973;52.084;5.412;2023-11-22T04:50:51;2.70;99.90
61912;DHT22;49973;52.084;5.412;2023-11-22T04:53:21;2.60;99.90
61912;DHT22;49973;52.084;5.412;2023-11-22T04:55:50;2.70;99.90
61912;DHT22;49973;52.084;5.412;2023-11-22T04:58:18;2.70;99.90
61912;DHT22;49973;52.084;5.412;2023-11-22T05:00:47;2.60;99.90
61912;DHT22;49973;52.084;5.412;2023-11-22T05:03:16;2.60;99.90
61912;DHT22;49973;52.084;5.412;2023-11-22T05:05:45;2.60;99.90
61912;DHT22;49973;52.084;5.412;2023-11-22T05:08:13;2.60;99.90
61912;DHT22;49973;52.084;5.412;2023-11-22T05:10:43;2.60;99.90
61912;DHT22;49973;52.084;5.412;2023-11-22T05:13:12;2.60;99.90
61912;DHT22;49973;52.084;5.412;2023-11-22T05:15:41;2.60;99.90
61912;DHT22;49973;52.084;5.412;2023-11-22T05:18:10;2.60;99.90
61912;DHT22;49973;52.084;5.412;2023-11-22T05:20:39;2.70;99.90
61912;DHT22;49973;52.084;5.412;2023-11-22T05:23:07;2.60;99.90
61912;DHT22;49973;52.084;5.412;2023-11-22T05:25:36;2.70;99.90
61912;DHT22;49973;52.084;5.412;2023-11-22T05:28:06;2.70;99.90
61912;DHT22;49973;52.084;5.412;2023-11-22T05:30:35;2.70;99.90
61912;DHT22;49973;52.084;5.412;2023-11-22T05:33:03;2.70;99.90
61912;DHT22;49973;52.084;5.412;2023-11-22T05:35:32;2.80;99.90
61912;DHT22;49973;52.084;5.412;2023-11-22T05:38:02;2.80;99.90
61912;DHT22;49973;52.084;5.412;2023-11-22T05:40:31;2.80;99.90
61912;DHT22;49973;52.084;5.412;2023-11-22T05:42:59;2.80;99.90
61912;DHT22;49973;52.084;5.412;2023-11-22T05:45:30;2.90;99.90
61912;DHT22;49973;52.084;5.412;2023-11-22T05:47:59;2.90;99.90
61912;DHT22;49973;52.084;5.412;2023-11-22T05:50:28;2.90;99.90
61912;DHT22;49973;52.084;5.412;2023-11-22T05:52:56;3.00;99.90
61912;DHT22;49973;52.084;5.412;2023-11-22T05:55:25;3.00;99.90
61912;DHT22;49973;52.084;5.412;2023-11-22T05:57:54;3.00;99.90
61912;DHT22;49973;52.084;5.412;2023-11-22T06:00:23;3.00;99.90
61912;DHT22;49973;52.084;5.412;2023-11-22T06:02:53;3.00;99.90
61912;DHT22;49973;52.084;5.412;2023-11-22T06:05:23;3.00;99.90
61912;DHT22;49973;52.084;5.412;2023-11-22T06:07:52;3.00;99.90
61912;DHT22;49973;52.084;5.412;2023-11-22T06:10:21;3.00;99.90
61912;DHT22;49973;52.084;5.412;2023-11-22T06:12:52;3.00;99.90
61912;DHT22;49973;52.084;5.412;2023-11-22T06:15:21;3.00;99.90
61912;DHT22;49973;52.084;5.412;2023-11-22T06:17:50;3.10;99.90
61912;DHT22;49973;52.084;5.412;2023-11-22T06:20:21;3.10;99.90
61912;DHT22;49973;52.084;5.412;2023-11-22T06:22:51;3.10;99.90
61912;DHT22;49973;52.084;5.412;2023-11-22T06:25:20;3.10;99.90
61912;DHT22;49973;52.084;5.412;2023-11-22T06:27:49;3.10;99.90
61912;DHT22;49973;52.084;5.412;2023-11-22T06:30:17;3.20;99.90
61912;DHT22;49973;52.084;5.412;2023-11-22T06:32:46;3.30;99.90
61912;DHT22;49973;52.084;5.412;2023-11-22T06:35:16;3.20;99.90
61912;DHT22;49973;52.084;5.412;2023-11-22T06:37:46;3.20;99.90
61912;DHT22;49973;52.084;5.412;2023-11-22T06:40:15;3.30;99.90
61912;DHT22;49973;52.084;5.412;2023-11-22T06:42:44;3.20;99.90
61912;DHT22;49973;52.084;5.412;2023-11-22T06:45:13;3.30;99.90
61912;DHT22;49973;52.084;5.412;2023-11-22T06:47:43;3.30;99.90
61912;DHT22;49973;52.084;5.412;2023-11-22T06:50:12;3.30;99.90
61912;DHT22;49973;52.084;5.412;2023-11-22T06:52:42;3.30;99.90
61912;DHT22;49973;52.084;5.412;2023-11-22T06:55:12;3.30;99.90
61912;DHT22;49973;52.084;5.412;2023-11-22T06:57:41;3.40;99.90
61912;DHT22;49973;52.084;5.412;2023-11-22T07:00:11;3.30;99.90
61912;DHT22;49973;52.084;5.412;2023-11-22T07:02:40;3.30;99.90
61912;DHT22;49973;52.084;5.412;2023-11-22T07:05:09;3.40;99.90
61912;DHT22;49973;52.084;5.412;2023-11-22T07:07:38;3.40;99.90
61912;DHT22;49973;52.084;5.412;2023-11-22T07:10:08;3.40;99.90
61912;DHT22;49973;52.084;5.412;2023-11-22T07:12:40;3.40;99.90
61912;DHT22;49973;52.084;5.412;2023-11-22T07:15:10;3.50;99.90
61912;DHT22;49973;52.084;5.412;2023-11-22T07:17:39;3.40;99.90
61912;DHT22;49973;52.084;5.412;2023-11-22T07:20:10;3.60;99.90
61912;DHT22;49973;52.084;5.412;2023-11-22T07:22:44;3.50;99.90
61912;DHT22;49973;52.084;5.412;2023-11-22T07:25:13;3.50;99.90
61912;DHT22;49973;52.084;5.412;2023-11-22T07:27:47;3.50;99.90
61912;DHT22;49973;52.084;5.412;2023-11-22T07:30:16;3.50;99.90
61912;DHT22;49973;52.084;5.412;2023-11-22T07:32:47;3.50;99.90
61912;DHT22;49973;52.084;5.412;2023-11-22T07:35:16;3.50;99.90
61912;DHT22;49973;52.084;5.412;2023-11-22T07:37:47;3.60;99.90
61912;DHT22;49973;52.084;5.412;2023-11-22T07:40:18;3.60;99.90
61912;DHT22;49973;52.084;5.412;2023-11-22T07:42:50;3.60;99.90
61912;DHT22;49973;52.084;5.412;2023-11-22T07:45:19;3.60;99.90
61912;DHT22;49973;52.084;5.412;2023-11-22T07:47:48;3.70;99.90
61912;DHT22;49973;52.084;5.412;2023-11-22T07:50:17;3.70;99.90
61912;DHT22;49973;52.084;5.412;2023-11-22T07:52:47;3.70;99.90
61912;DHT22;49973;52.084;5.412;2023-11-22T07:55:16;3.70;99.90
61912;DHT22;49973;52.084;5.412;2023-11-22T07:57:45;3.80;99.90
61912;DHT22;49973;52.084;5.412;2023-11-22T08:00:16;3.80;99.90
61912;DHT22;49973;52.084;5.412;2023-11-22T08:02:46;3.80;99.90
61912;DHT22;49973;52.084;5.412;2023-11-22T08:05:15;3.90;99.90
61912;DHT22;49973;52.084;5.412;2023-11-22T08:07:45;3.90;99.90
61912;DHT22;49973;52.084;5.412;2023-11-22T08:10:16;3.90;99.90
61912;DHT22;49973;52.084;5.412;2023-11-22T08:12:48;4.00;99.90
61912;DHT22;49973;52.084;5.412;2023-11-22T08:15:20;4.00;99.90
61912;DHT22;49973;52.084;5.412;2023-11-22T08:17:49;4.00;99.90
61912;DHT22;49973;52.084;5.412;2023-11-22T08:20:18;4.00;99.90
61912;DHT22;49973;52.084;5.412;2023-11-22T08:22:47;4.00;99.90
61912;DHT22;49973;52.084;5.412;2023-11-22T08:25:18;4.20;99.90
61912;DHT22;49973;52.084;5.412;2023-11-22T08:27:47;4.20;99.90
61912;DHT22;49973;52.084;5.412;2023-11-22T08:30:16;4.20;99.90
61912;DHT22;49973;52.084;5.412;2023-11-22T08:32:47;4.20;99.90
61912;DHT22;49973;52.084;5.412;2023-11-22T08:35:22;4.30;99.90
61912;DHT22;49973;52.084;5.412;2023-11-22T08:37:51;4.30;99.90
61912;DHT22;49973;52.084;5.412;2023-11-22T08:40:20;4.40;99.90
61912;DHT22;49973;52.084;5.412;2023-11-22T08:42:49;4.50;99.90
61912;DHT22;49973;52.084;5.412;2023-11-22T08:45:18;4.60;99.90
61912;DHT22;49973;52.084;5.412;2023-11-22T08:47:48;4.60;99.90
61912;DHT22;49973;52.084;5.412;2023-11-22T08:50:19;4.70;99.90
61912;DHT22;49973;52.084;5.412;2023-11-22T08:52:48;4.80;99.90
61912;DHT22;49973;52.084;5.412;2023-11-22T08:55:20;4.80;99.90
61912;DHT22;49973;52.084;5.412;2023-11-22T08:57:50;4.90;99.90
61912;DHT22;49973;52.084;5.412;2023-11-22T09:00:19;5.00;99.90
61912;DHT22;49973;52.084;5.412;2023-11-22T09:02:51;5.10;99.90
61912;DHT22;49973;52.084;5.412;2023-11-22T09:05:20;5.10;99.90
61912;DHT22;49973;52.084;5.412;2023-11-22T09:07:49;5.20;99.90
61912;DHT22;49973;52.084;5.412;2023-11-22T09:10:18;5.20;99.90
61912;DHT22;49973;52.084;5.412;2023-11-22T09:12:49;5.20;99.90
61912;DHT22;49973;52.084;5.412;2023-11-22T09:15:18;5.20;99.90
61912;DHT22;49973;52.084;5.412;2023-11-22T09:17:55;5.20;99.90
61912;DHT22;49973;52.084;5.412;2023-11-22T09:20:24;5.30;99.90
61912;DHT22;49973;52.084;5.412;2023-11-22T09:22:54;5.40;99.90
61912;DHT22;49973;52.084;5.412;2023-11-22T09:25:24;5.40;99.90
61912;DHT22;49973;52.084;5.412;2023-11-22T09:27:56;5.50;99.90
61912;DHT22;49973;52.084;5.412;2023-11-22T09:30:28;5.60;99.90
61912;DHT22;49973;52.084;5.412;2023-11-22T09:33:05;5.60;99.90
61912;DHT22;49973;52.084;5.412;2023-11-22T09:35:35;5.60;99.90
61912;DHT22;49973;52.084;5.412;2023-11-22T09:38:05;5.70;99.90
61912;DHT22;49973;52.084;5.412;2023-11-22T09:40:41;5.60;99.90
61912;DHT22;49973;52.084;5.412;2023-11-22T09:43:11;5.70;99.90
61912;DHT22;49973;52.084;5.412;2023-11-22T09:45:43;5.70;99.90
61912;DHT22;49973;52.084;5.412;2023-11-22T09:48:15;5.80;99.90
61912;DHT22;49973;52.084;5.412;2023-11-22T09:50:50;5.90;99.90
61912;DHT22;49973;52.084;5.412;2023-11-22T09:53:27;5.90;99.90
61912;DHT22;49973;52.084;5.412;2023-11-22T09:55:58;6.00;99.90
61912;DHT22;49973;52.084;5.412;2023-11-22T09:58:28;6.00;99.90
61912;DHT22;49973;52.084;5.412;2023-11-22T10:00:58;6.00;99.90
61912;DHT22;49973;52.084;5.412;2023-11-22T10:03:28;6.00;99.90
61912;DHT22;49973;52.084;5.412;2023-11-22T10:05:58;6.00;99.90
61912;DHT22;49973;52.084;5.412;2023-11-22T10:08:27;6.10;99.90
61912;DHT22;49973;52.084;5.412;2023-11-22T10:10:57;6.10;99.90
61912;DHT22;49973;52.084;5.412;2023-11-22T10:13:27;6.10;99.90
61912;DHT22;49973;52.084;5.412;2023-11-22T10:16:08;6.10;99.90
61912;DHT22;49973;52.084;5.412;2023-11-22T10:18:43;6.10;99.90
61912;DHT22;49973;52.084;5.412;2023-11-22T10:21:19;6.10;99.90
61912;DHT22;49973;52.084;5.412;2023-11-22T10:23:49;6.10;99.90
61912;DHT22;49973;52.084;5.412;2023-11-22T10:26:19;6.10;99.90
61912;DHT22;49973;52.084;5.412;2023-11-22T10:28:50;6.20;99.90
61912;DHT22;49973;52.084;5.412;2023-11-22T10:31:20;6.10;99.90
61912;DHT22;49973;52.084;5.412;2023-11-22T10:33:51;6.20;99.90
61912;DHT22;49973;52.084;5.412;2023-11-22T10:36:21;6.20;99.90
61912;DHT22;49973;52.084;5.412;2023-11-22T10:38:50;6.40;99.90
61912;DHT22;49973;52.084;5.412;2023-11-22T10:41:20;6.40;99.90
61912;DHT22;49973;52.084;5.412;2023-11-22T10:43:52;6.50;99.90
61912;DHT22;49973;52.084;5.412;2023-11-22T10:46:21;6.60;99.90
61912;DHT22;49973;52.084;5.412;2023-11-22T10:48:54;6.70;99.90
61912;DHT22;49973;52.084;5.412;2023-11-22T10:51:27;6.70;99.90
61912;DHT22;49973;52.084;5.412;2023-11-22T10:53:58;6.70;99.90
61912;DHT22;49973;52.084;5.412;2023-11-22T10:56:29;6.70;99.90
61912;DHT22;49973;52.084;5.412;2023-11-22T10:59:02;6.80;99.90
61912;DHT22;49973;52.084;5.412;2023-11-22T11:01:35;6.80;99.90
61912;DHT22;49973;52.084;5.412;2023-11-22T11:04:09;6.90;99.90
61912;DHT22;49973;52.084;5.412;2023-11-22T11:06:41;6.90;99.90
61912;DHT22;49973;52.084;5.412;2023-11-22T11:09:14;6.90;99.90
61912;DHT22;49973;52.084;5.412;2023-11-22T11:11:46;6.90;99.90
61912;DHT22;49973;52.084;5.412;2023-11-22T11:14:15;6.90;99.90
61912;DHT22;49973;52.084;5.412;2023-11-22T11:16:46;7.00;99.90
61912;DHT22;49973;52.084;5.412;2023-11-22T11:19:18;7.00;99.90
61912;DHT22;49973;52.084;5.412;2023-11-22T11:21:49;7.10;99.90
61912;DHT22;49973;52.084;5.412;2023-11-22T11:24:18;7.20;99.90
61912;DHT22;49973;52.084;5.412;2023-11-22T11:26:48;7.50;99.90
61912;DHT22;49973;52.084;5.412;2023-11-22T11:29:30;7.30;99.90
61912;DHT22;49973;52.084;5.412;2023-11-22T11:31:59;7.40;99.90
61912;DHT22;49973;52.084;5.412;2023-11-22T11:34:30;7.40;99.90
61912;DHT22;49973;52.084;5.412;2023-11-22T11:36:59;7.50;99.90
61912;DHT22;49973;52.084;5.412;2023-11-22T11:39:28;7.60;99.90
61912;DHT22;49973;52.084;5.412;2023-11-22T11:42:08;7.60;99.90
61912;DHT22;49973;52.084;5.412;2023-11-22T11:45:04;7.70;99.90
61912;DHT22;49973;52.084;5.412;2023-11-22T11:47:34;7.80;99.90
61912;DHT22;49973;52.084;5.412;2023-11-22T11:50:05;7.90;99.90
61912;DHT22;49973;52.084;5.412;2023-11-22T11:52:34;7.90;99.90
61912;DHT22;49973;52.084;5.412;2023-11-22T11:55:04;7.90;99.90
61912;DHT22;49973;52.084;5.412;2023-11-22T11:57:33;7.90;99.90
61912;DHT22;49973;52.084;5.412;2023-11-22T12:00:04;7.90;99.90
61912;DHT22;49973;52.084;5.412;2023-11-22T12:02:39;7.80;99.90
61912;DHT22;49973;52.084;5.412;2023-11-22T12:05:09;7.80;99.90
61912;DHT22;49973;52.084;5.412;2023-11-22T12:07:38;7.80;99.90
61912;DHT22;49973;52.084;5.412;2023-11-22T12:10:07;7.70;99.90
61912;DHT22;49973;52.084;5.412;2023-11-22T12:12:36;7.70;99.90
61912;DHT22;49973;52.084;5.412;2023-11-22T12:15:08;7.60;99.90
61912;DHT22;49973;52.084;5.412;2023-11-22T12:17:38;7.60;99.90
61912;DHT22;49973;52.084;5.412;2023-11-22T12:20:13;7.50;99.90
61912;DHT22;49973;52.084;5.412;2023-11-22T12:22:45;7.50;99.90
61912;DHT22;49973;52.084;5.412;2023-11-22T12:25:14;7.50;99.90
61912;DHT22;49973;52.084;5.412;2023-11-22T12:27:43;7.40;99.90
61912;DHT22;49973;52.084;5.412;2023-11-22T12:30:28;7.40;99.90
61912;DHT22;49973;52.084;5.412;2023-11-22T12:32:59;7.40;99.90
61912;DHT22;49973;52.084;5.412;2023-11-22T12:35:30;7.40;99.90
61912;DHT22;49973;52.084;5.412;2023-11-22T12:37:59;7.60;99.90
61912;DHT22;49973;52.084;5.412;2023-11-22T12:40:29;7.60;99.90
61912;DHT22;49973;52.084;5.412;2023-11-22T12:43:01;7.70;99.90
61912;DHT22;49973;52.084;5.412;2023-11-22T12:45:31;7.70;99.90
61912;DHT22;49973;52.084;5.412;2023-11-22T12:48:22;7.90;99.90
61912;DHT22;49973;52.084;5.412;2023-11-22T12:50:53;7.90;99.90
61912;DHT22;49973;52.084;5.412;2023-11-22T12:53:24;8.00;99.90
61912;DHT22;49973;52.084;5.412;2023-11-22T12:55:56;8.00;99.90
61912;DHT22;49973;52.084;5.412;2023-11-22T12:58:25;8.00;99.90
61912;DHT22;49973;52.084;5.412;2023-11-22T13:00:56;8.00;99.90
61912;DHT22;49973;52.084;5.412;2023-11-22T13:03:28;8.00;99.90
61912;DHT22;49973;52.084;5.412;2023-11-22T13:05:58;8.00;99.90
61912;DHT22;49973;52.084;5.412;2023-11-22T13:08:27;7.90;99.90
61912;DHT22;49973;52.084;5.412;2023-11-22T13:10:57;7.90;99.90
61912;DHT22;49973;52.084;5.412;2023-11-22T13:13:27;7.90;99.90
61912;DHT22;49973;52.084;5.412;2023-11-22T13:15:58;7.90;99.90
61912;DHT22;49973;52.084;5.412;2023-11-22T13:18:27;7.90;99.90
61912;DHT22;49973;52.084;5.412;2023-11-22T13:20:57;7.90;99.90
61912;DHT22;49973;52.084;5.412;2023-11-22T13:23:26;7.90;99.90
61912;DHT22;49973;52.084;5.412;2023-11-22T13:25:54;7.90;99.90
61912;DHT22;49973;52.084;5.412;2023-11-22T13:28:23;8.00;99.90
61912;DHT22;49973;52.084;5.412;2023-11-22T13:30:53;7.90;99.90
61912;DHT22;49973;52.084;5.412;2023-11-22T13:33:22;7.80;99.90
61912;DHT22;49973;52.084;5.412;2023-11-22T13:35:51;7.80;99.90
61912;DHT22;49973;52.084;5.412;2023-11-22T13:38:21;7.70;99.90
61912;DHT22;49973;52.084;5.412;2023-11-22T13:40:51;7.70;99.90
61912;DHT22;49973;52.084;5.412;2023-11-22T13:43:19;7.60;99.90
61912;DHT22;49973;52.084;5.412;2023-11-22T13:45:48;7.50;99.90
61912;DHT22;49973;52.084;5.412;2023-11-22T13:48:17;7.50;99.90
61912;DHT22;49973;52.084;5.412;2023-11-22T13:50:46;7.40;99.90
61912;DHT22;49973;52.084;5.412;2023-11-22T13:53:15;7.40;99.90
61912;DHT22;49973;52.084;5.412;2023-11-22T13:55:48;7.30;99.90
61912;DHT22;49973;52.084;5.412;2023-11-22T13:58:17;7.30;99.90
61912;DHT22;49973;52.084;5.412;2023-11-22T14:00:46;7.20;99.90
61912;DHT22;49973;52.084;5.412;2023-11-22T14:03:15;7.10;99.90
61912;DHT22;49973;52.084;5.412;2023-11-22T14:05:44;7.10;99.90
61912;DHT22;49973;52.084;5.412;2023-11-22T14:08:12;7.00;99.90
61912;DHT22;49973;52.084;5.412;2023-11-22T14:10:44;7.00;99.90
61912;DHT22;49973;52.084;5.412;2023-11-22T14:13:14;7.00;99.90
61912;DHT22;49973;52.084;5.412;2023-11-22T14:15:42;7.00;99.90
61912;DHT22;49973;52.084;5.412;2023-11-22T14:18:11;7.00;99.90
61912;DHT22;49973;52.084;5.412;2023-11-22T14:20:39;7.00;99.90
61912;DHT22;49973;52.084;5.412;2023-11-22T14:23:08;6.90;99.90
61912;DHT22;49973;52.084;5.412;2023-11-22T14:25:37;6.90;99.90
61912;DHT22;49973;52.084;5.412;2023-11-22T14:28:08;6.90;99.90
61912;DHT22;49973;52.084;5.412;2023-11-22T14:30:38;6.90;99.90
61912;DHT22;49973;52.084;5.412;2023-11-22T14:33:08;6.80;99.90
61912;DHT22;49973;52.084;5.412;2023-11-22T14:35:37;6.80;99.90
61912;DHT22;49973;52.084;5.412;2023-11-22T14:38:06;6.80;99.90
61912;DHT22;49973;52.084;5.412;2023-11-22T14:40:36;6.70;99.90
61912;DHT22;49973;52.084;5.412;2023-11-22T14:43:06;6.70;99.90
61912;DHT22;49973;52.084;5.412;2023-11-22T14:45:35;6.70;99.90
61912;DHT22;49973;52.084;5.412;2023-11-22T14:48:06;6.70;99.90
61912;DHT22;49973;52.084;5.412;2023-11-22T14:50:36;6.60;99.90
61912;DHT22;49973;52.084;5.412;2023-11-22T14:53:05;6.60;99.90
61912;DHT22;49973;52.084;5.412;2023-11-22T14:55:34;6.60;99.90
61912;DHT22;49973;52.084;5.412;2023-11-22T14:58:07;6.50;99.90
61912;DHT22;49973;52.084;5.412;2023-11-22T15:00:36;6.50;99.90
61912;DHT22;49973;52.084;5.412;2023-11-22T15:03:06;6.40;99.90
61912;DHT22;49973;52.084;5.412;2023-11-22T15:05:35;6.40;99.90
61912;DHT22;49973;52.084;5.412;2023-11-22T15:08:04;6.40;99.90
61912;DHT22;49973;52.084;5.412;2023-11-22T15:10:35;6.40;99.90
61912;DHT22;49973;52.084;5.412;2023-11-22T15:13:03;6.30;99.90
61912;DHT22;49973;52.084;5.412;2023-11-22T15:15:32;6.30;99.90
61912;DHT22;49973;52.084;5.412;2023-11-22T15:18:01;6.30;99.90
61912;DHT22;49973;52.084;5.412;2023-11-22T15:20:31;6.30;99.90
61912;DHT22;49973;52.084;5.412;2023-11-22T15:23:01;6.30;99.90
61912;DHT22;49973;52.084;5.412;2023-11-22T15:25:30;6.30;99.90
61912;DHT22;49973;52.084;5.412;2023-11-22T15:27:59;6.30;99.90
61912;DHT22;49973;52.084;5.412;2023-11-22T15:30:28;6.30;99.90
61912;DHT22;49973;52.084;5.412;2023-11-22T15:32:56;6.20;99.90
61912;DHT22;49973;52.084;5.412;2023-11-22T15:35:25;6.20;99.90
61912;DHT22;49973;52.084;5.412;2023-11-22T15:37:55;6.30;99.90
61912;DHT22;49973;52.084;5.412;2023-11-22T15:40:25;6.10;99.90
61912;DHT22;49973;52.084;5.412;2023-11-22T15:42:54;6.10;99.90
61912;DHT22;49973;52.084;5.412;2023-11-22T15:45:22;6.10;99.90
61912;DHT22;49973;52.084;5.412;2023-11-22T15:47:51;6.00;99.90
61912;DHT22;49973;52.084;5.412;2023-11-22T15:50:20;6.00;99.90
61912;DHT22;49973;52.084;5.412;2023-11-22T15:52:49;6.10;99.90
61912;DHT22;49973;52.084;5.412;2023-11-22T15:55:19;6.00;99.90
61912;DHT22;49973;52.084;5.412;2023-11-22T15:57:47;6.00;99.90
61912;DHT22;49973;52.084;5.412;2023-11-22T16:00:16;6.00;99.90
61912;DHT22;49973;52.084;5.412;2023-11-22T16:02:45;6.00;99.90